Time;durP1;ratioP1;P1;durP2;ratioP2;P2;SDS_P1;SDS_P2;PMS_P1;PMS_P2;Temp;Humidity;BMP_temperature;BMP_pressure;BME280_temperature;BME280_humidity;BME280_pressure;Samples;Min_cycle;Max_cycle;Signal;HPM_P1;HPM_P2
2021/12/07 00:02:06;;;;;;;4.18;2.20;;;;;;;;;;4993209;28;20066;-83
2021/12/07 00:04:38;;;;;;;4.32;2.55;;;;;;;;;;4994416;28;20051;-81
2021/12/07 00:07:07;;;;;;;4.95;1.92;;;;;;;;;;4997286;28;20125;-83
2021/12/07 00:09:59;;;;;;;6.95;2.10;;;;;;;;;;4995885;28;20058;-82
2021/12/07 00:12:37;;;;;;;6.68;1.58;;;;;;;;;;4984643;28;20521;-82
2021/12/07 00:15:06;;;;;;;4.47;1.90;;;;;;;;;;4996511;28;20038;-83
2021/12/07 00:17:39;;;;;;;3.95;1.92;;;;;;;;;;4979406;28;20053;-83
2021/12/07 00:20:10;;;;;;;5.60;1.88;;;;;;;;;;4997321;28;20117;-83
2021/12/07 00:22:38;;;;;;;4.03;1.75;;;;;;;;;;4996878;28;20121;-82
2021/12/07 00:25:13;;;;;;;6.53;2.20;;;;;;;;;;4994793;28;20043;-79
2021/12/07 00:27:41;;;;;;;2.65;1.75;;;;;;;;;;4995052;28;20054;-79
2021/12/07 00:30:12;;;;;;;3.28;1.33;;;;;;;;;;4979426;28;20167;-80
2021/12/07 00:33:06;;;;;;;4.70;1.42;;;;;;;;;;4996679;28;20129;-80
2021/12/07 00:35:40;;;;;;;2.25;1.58;;;;;;;;;;4979608;28;20145;-80
2021/12/07 00:38:15;;;;;;;3.88;1.70;;;;;;;;;;4995502;28;20085;-81
2021/12/07 00:40:43;;;;;;;3.45;1.40;;;;;;;;;;4979229;28;20073;-81
2021/12/07 00:43:20;;;;;;;2.38;1.25;;;;;;;;;;4995031;28;20073;-80
2021/12/07 00:45:51;;;;;;;3.95;1.23;;;;;;;;;;4995332;28;20050;-80
2021/12/07 00:48:19;;;;;;;1.52;1.17;;;;;;;;;;4995205;28;20462;-81
2021/12/07 00:50:54;;;;;;;3.58;1.70;;;;;;;;;;4993139;28;20150;-82
2021/12/07 00:53:22;;;;;;;4.75;1.30;;;;;;;;;;4994653;28;20515;-81
2021/12/07 00:55:51;;;;;;;1.58;1.27;;;;;;;;;;4979266;28;20104;-81
2021/12/07 00:58:24;;;;;;;1.70;1.00;;;;;;;;;;4978540;28;20046;-80
2021/12/07 01:00:56;;;;;;;5.07;1.30;;;;;;;;;;4994732;28;20043;-80
2021/12/07 01:03:24;;;;;;;2.25;1.40;;;;;;;;;;4994792;28;20050;-81
2021/12/07 01:06:16;;;;;;;1.00;0.90;;;;;;;;;;4994716;28;20050;-81
2021/12/07 01:25:55;;;;;;;2.45;0.80;;;;;;;;;;4964460;28;20069;-78
2021/12/07 01:28:30;;;;;;;3.53;0.73;;;;;;;;;;4978161;28;20074;-83
2021/12/07 01:31:31;;;;;;;1.02;0.70;;;;;;;;;;4978249;28;20509;-80
2021/12/07 01:45:12;;;;;;;0.68;0.50;;;;;;;;;;4977524;28;20050;-81
2021/12/07 01:50:50;;;;;;;1.90;0.40;;;;;;;;;;4962744;28;20074;-84
2021/12/07 02:01:36;;;;;;;0.88;0.43;;;;;;;;;;4977275;28;20058;-83
2021/12/07 02:04:05;;;;;;;2.05;0.70;;;;;;;;;;4993792;28;20074;-78
2021/12/07 02:06:33;;;;;;;1.17;0.50;;;;;;;;;;4977961;28;20438;-79
2021/12/07 02:09:04;;;;;;;0.80;0.57;;;;;;;;;;4977425;28;20054;-81
2021/12/07 02:11:44;;;;;;;1.90;0.52;;;;;;;;;;4993409;28;20561;-79
2021/12/07 02:14:18;;;;;;;1.33;0.60;;;;;;;;;;4976763;28;20058;-81
2021/12/07 02:16:57;;;;;;;1.77;0.77;;;;;;;;;;4962121;28;20038;-81
2021/12/07 02:19:26;;;;;;;3.47;0.70;;;;;;;;;;4961016;28;20458;-84
2021/12/07 02:21:56;;;;;;;1.95;0.40;;;;;;;;;;4945295;28;20042;-81
2021/12/07 02:24:30;;;;;;;1.65;0.60;;;;;;;;;;4993141;28;20046;-81
2021/12/07 02:26:58;;;;;;;0.32;0.32;;;;;;;;;;4992016;28;20080;-79
2021/12/07 02:29:26;;;;;;;1.25;0.40;;;;;;;;;;4976795;28;20405;-84
2021/12/07 02:31:59;;;;;;;2.00;0.38;;;;;;;;;;4961023;28;20046;-79
2021/12/07 02:34:26;;;;;;;0.80;0.28;;;;;;;;;;4977394;28;20062;-84
2021/12/07 02:36:59;;;;;;;0.40;0.30;;;;;;;;;;4977071;28;20137;-81
2021/12/07 02:39:35;;;;;;;0.10;0.10;;;;;;;;;;4992882;28;20042;-81
2021/12/07 02:42:08;;;;;;;0.85;0.20;;;;;;;;;;4961141;28;20043;-78
2021/12/07 02:44:36;;;;;;;0.75;0.20;;;;;;;;;;4960832;28;20068;-84
2021/12/07 02:47:14;;;;;;;0.47;0.20;;;;;;;;;;4946743;28;20157;-82
2021/12/07 02:49:43;;;;;;;2.35;0.30;;;;;;;;;;4993877;28;20052;-84
2021/12/07 02:52:12;;;;;;;0.20;0.20;;;;;;;;;;4961074;28;20101;-81
2021/12/07 02:54:45;;;;;;;1.25;0.22;;;;;;;;;;4960369;28;20715;-79
2021/12/07 02:57:21;;;;;;;0.73;0.20;;;;;;;;;;4975047;28;20484;-84
2021/12/07 03:00:08;;;;;;;0.30;0.20;;;;;;;;;;4976170;28;20051;-79
2021/12/07 03:02:47;;;;;;;0.20;0.10;;;;;;;;;;4963097;28;20466;-82
2021/12/07 03:28:16;;;;;;;1.35;0.40;;;;;;;;;;4963130;28;20140;-82
2021/12/07 03:30:45;;;;;;;1.52;0.30;;;;;;;;;;4960779;28;20047;-85
2021/12/07 03:33:19;;;;;;;0.65;0.50;;;;;;;;;;4961011;28;20121;-82
2021/12/07 03:35:48;;;;;;;0.95;0.35;;;;;;;;;;4975941;28;20106;-79
2021/12/07 03:38:22;;;;;;;2.50;0.98;;;;;;;;;;4946653;28;20042;-82
2021/12/07 03:40:53;;;;;;;0.47;0.40;;;;;;;;;;4980129;28;20406;-82
2021/12/07 03:43:22;;;;;;;2.08;0.47;;;;;;;;;;4964130;28;20485;-82
2021/12/07 03:45:55;;;;;;;0.73;0.50;;;;;;;;;;4980035;28;20046;-85
2021/12/07 03:48:25;;;;;;;2.10;0.73;;;;;;;;;;4980219;28;20046;-79
2021/12/07 03:50:53;;;;;;;2.75;0.60;;;;;;;;;;4979829;28;20050;-85
2021/12/07 03:53:22;;;;;;;2.13;1.10;;;;;;;;;;4979601;28;20058;-85
2021/12/07 03:55:50;;;;;;;1.67;1.20;;;;;;;;;;4963634;28;20042;-85
2021/12/07 03:58:18;;;;;;;1.23;1.00;;;;;;;;;;4980402;28;20078;-79
2021/12/07 04:00:51;;;;;;;1.17;0.60;;;;;;;;;;4963568;28;20138;-82
2021/12/07 04:03:21;;;;;;;0.60;0.60;;;;;;;;;;4979480;28;20048;-85
2021/12/07 04:05:55;;;;;;;2.10;0.77;;;;;;;;;;4963598;28;20133;-79
2021/12/07 04:08:24;;;;;;;1.52;0.93;;;;;;;;;;4979505;28;20418;-82
2021/12/07 04:10:58;;;;;;;1.55;0.98;;;;;;;;;;4979628;28;20137;-82
2021/12/07 04:13:29;;;;;;;1.77;1.10;;;;;;;;;;4979433;28;20058;-82
2021/12/07 04:16:01;;;;;;;1.42;1.00;;;;;;;;;;4997090;28;20093;-85
2021/12/07 04:18:28;;;;;;;0.70;0.70;;;;;;;;;;4963372;28;20097;-81
2021/12/07 04:21:02;;;;;;;1.15;0.68;;;;;;;;;;4979252;28;20050;-82
2021/12/07 04:23:34;;;;;;;1.30;0.85;;;;;;;;;;4979524;28;20433;-80
2021/12/07 04:26:10;;;;;;;3.30;1.15;;;;;;;;;;4979614;28;20457;-82
2021/12/07 04:28:38;;;;;;;2.28;0.90;;;;;;;;;;4963061;28;20137;-82
2021/12/07 04:31:07;;;;;;;0.95;0.88;;;;;;;;;;4979666;28;20508;-82
2021/12/07 04:33:36;;;;;;;2.05;0.70;;;;;;;;;;4979595;28;20050;-81
2021/12/07 04:36:06;;;;;;;1.00;0.57;;;;;;;;;;4947341;28;20418;-79
2021/12/07 04:38:34;;;;;;;1.92;0.55;;;;;;;;;;4978712;28;20046;-82
2021/12/07 04:41:05;;;;;;;1.52;1.35;;;;;;;;;;4963643;28;20433;-79
2021/12/07 04:43:35;;;;;;;1.83;0.60;;;;;;;;;;4971249;28;20050;-83
2021/12/07 04:49:08;;;;;;;1.05;0.43;;;;;;;;;;4978529;28;20048;-81
2021/12/07 04:59:44;;;;;;;3.95;1.02;;;;;;;;;;4978596;28;20489;-81
2021/12/07 05:02:12;;;;;;;3.10;0.80;;;;;;;;;;4962525;28;20049;-82
2021/12/07 05:04:40;;;;;;;2.10;1.17;;;;;;;;;;4963132;28;20058;-79
2021/12/07 05:07:15;;;;;;;2.33;0.70;;;;;;;;;;4978726;28;20065;-82
2021/12/07 05:12:24;;;;;;;;;;;;;;;;;;4963686;28;20081;-82
2021/12/07 05:15:01;;;;;;;1.35;1.25;;;;;;;;;;4962353;28;19921;-82
2021/12/07 05:39:46;;;;;;;2.35;1.10;;;;;;;;;;4978054;28;20069;-84
2021/12/07 05:42:14;;;;;;;2.75;1.48;;;;;;;;;;4995309;28;20073;-82
2021/12/07 05:44:41;;;;;;;8.05;2.72;;;;;;;;;;4962255;28;20043;-82
2021/12/07 05:47:11;;;;;;;3.63;1.20;;;;;;;;;;4962113;28;20121;-84
2021/12/07 05:49:45;;;;;;;4.60;2.72;;;;;;;;;;4994737;28;20043;-81
2021/12/07 05:52:13;;;;;;;4.63;1.98;;;;;;;;;;4977081;28;20088;-83
2021/12/07 05:54:41;;;;;;;3.58;1.40;;;;;;;;;;4977367;28;20042;-83
2021/12/07 05:57:09;;;;;;;2.15;1.70;;;;;;;;;;4977664;28;20093;-82
2021/12/07 05:59:37;;;;;;;2.75;1.50;;;;;;;;;;4961628;28;20038;-82
2021/12/07 06:02:05;;;;;;;4.97;2.60;;;;;;;;;;4994665;28;20030;-77
2021/12/07 06:04:34;;;;;;;4.25;1.40;;;;;;;;;;4977931;28;20042;-79
2021/12/07 06:07:01;;;;;;;2.65;2.20;;;;;;;;;;4976991;28;20133;-80
2021/12/07 06:09:32;;;;;;;2.38;1.60;;;;;;;;;;4977154;28;20081;-81
2021/12/07 06:11:59;;;;;;;3.88;1.98;;;;;;;;;;4961177;28;20134;-78
2021/12/07 06:14:34;;;;;;;2.92;1.65;;;;;;;;;;4976747;28;20046;-79
2021/12/07 06:17:03;;;;;;;2.22;1.20;;;;;;;;;;4977555;28;20035;-82
2021/12/07 06:19:34;;;;;;;2.63;1.08;;;;;;;;;;4961431;28;20481;-82
2021/12/07 06:22:02;;;;;;;3.42;2.25;;;;;;;;;;4977318;28;20039;-80
2021/12/07 06:24:31;;;;;;;2.58;1.00;;;;;;;;;;4977537;28;20038;-81
2021/12/07 06:27:01;;;;;;;2.58;0.90;;;;;;;;;;4960885;28;20482;-82
2021/12/07 06:29:29;;;;;;;3.58;0.88;;;;;;;;;;4976370;28;20073;-81
2021/12/07 06:32:00;;;;;;;1.33;0.82;;;;;;;;;;4976594;28;20116;-78
2021/12/07 06:34:31;;;;;;;2.22;0.95;;;;;;;;;;4976944;28;20042;-78
2021/12/07 06:37:02;;;;;;;2.25;1.00;;;;;;;;;;4976771;28;20042;-83
2021/12/07 06:39:29;;;;;;;1.35;1.10;;;;;;;;;;4960629;28;20125;-78
2021/12/07 06:41:59;;;;;;;1.65;1.42;;;;;;;;;;4977344;28;20034;-82
2021/12/07 06:44:26;;;;;;;3.88;1.35;;;;;;;;;;4977200;28;20042;-78
2021/12/07 06:46:54;;;;;;;4.65;1.25;;;;;;;;;;4994145;28;20208;-84
2021/12/07 06:49:22;;;;;;;4.93;1.55;;;;;;;;;;4976679;28;20050;-80
2021/12/07 06:51:51;;;;;;;4.60;1.75;;;;;;;;;;4960580;28;20042;-78
2021/12/07 06:54:19;;;;;;;6.78;1.42;;;;;;;;;;4976820;28;20043;-80
2021/12/07 06:56:47;;;;;;;3.20;1.20;;;;;;;;;;4976297;28;20438;-78
2021/12/07 06:59:14;;;;;;;3.95;1.20;;;;;;;;;;4993682;28;20500;-81
2021/12/07 07:01:46;;;;;;;5.90;1.85;;;;;;;;;;4993349;28;20080;-77
2021/12/07 07:04:15;;;;;;;4.43;1.40;;;;;;;;;;4976427;28;20571;-81
2021/12/07 07:06:45;;;;;;;2.45;1.13;;;;;;;;;;4976076;28;20074;-81
2021/12/07 07:09:13;;;;;;;5.72;1.80;;;;;;;;;;4977570;28;20046;-81
2021/12/07 07:11:41;;;;;;;2.28;1.20;;;;;;;;;;4976351;28;20046;-77
2021/12/07 07:14:09;;;;;;;4.68;1.30;;;;;;;;;;4993789;28;20053;-77
2021/12/07 07:16:37;;;;;;;6.45;2.80;;;;;;;;;;4989187;28;20045;-82
2021/12/07 07:19:04;;;;;;;4.50;1.80;;;;;;;;;;4956789;28;20137;-81
2021/12/07 07:21:32;;;;;;;2.95;1.65;;;;;;;;;;4956921;28;20470;-81
2021/12/07 07:24:00;;;;;;;6.47;1.85;;;;;;;;;;4957013;28;20043;-82
2021/12/07 07:26:31;;;;;;;4.40;1.80;;;;;;;;;;4973524;28;20122;-82
2021/12/07 07:28:58;;;;;;;5.72;1.90;;;;;;;;;;4956731;28;20558;-79
2021/12/07 07:31:26;;;;;;;3.25;1.55;;;;;;;;;;4973666;28;20407;-82
2021/12/07 07:33:55;;;;;;;4.25;2.22;;;;;;;;;;4956602;28;20242;-80
2021/12/07 07:36:23;;;;;;;5.75;2.13;;;;;;;;;;4973801;28;20042;-82
2021/12/07 07:38:50;;;;;;;7.13;2.42;;;;;;;;;;4954637;28;20499;-77
2021/12/07 07:41:19;;;;;;;5.38;1.50;;;;;;;;;;4947294;28;20032;-77
2021/12/07 07:43:46;;;;;;;5.63;1.58;;;;;;;;;;4956307;28;20038;-83
2021/12/07 07:46:17;;;;;;;3.92;1.33;;;;;;;;;;4956214;28;20070;-83
2021/12/07 07:48:46;;;;;;;4.38;1.40;;;;;;;;;;4956203;28;20059;-82
2021/12/07 07:51:14;;;;;;;8.00;1.42;;;;;;;;;;4971035;28;20043;-76
2021/12/07 07:53:43;;;;;;;6.22;1.70;;;;;;;;;;4988317;28;20054;-75
2021/12/07 07:56:11;;;;;;;2.75;1.60;;;;;;;;;;4975970;28;20129;-81
2021/12/07 07:58:39;;;;;;;5.15;1.10;;;;;;;;;;4993288;28;20038;-82
2021/12/07 08:01:07;;;;;;;8.13;0.90;;;;;;;;;;4993081;28;20066;-77
2021/12/07 08:03:35;;;;;;;2.08;1.10;;;;;;;;;;4975686;28;20524;-82
2021/12/07 08:06:04;;;;;;;5.63;1.20;;;;;;;;;;4975525;28;20046;-81
2021/12/07 08:08:32;;;;;;;2.20;1.35;;;;;;;;;;4993025;28;20043;-77
2021/12/07 08:11:02;;;;;;;4.18;1.13;;;;;;;;;;4992709;28;20050;-76
2021/12/07 08:13:31;;;;;;;7.75;1.90;;;;;;;;;;4993031;28;20089;-83
2021/12/07 08:16:00;;;;;;;2.35;1.30;;;;;;;;;;4975025;28;20092;-80
2021/12/07 08:18:27;;;;;;;4.55;1.40;;;;;;;;;;4959586;28;20035;-82
2021/12/07 08:20:56;;;;;;;3.10;1.15;;;;;;;;;;4975338;28;20413;-81
2021/12/07 08:23:23;;;;;;;5.00;1.25;;;;;;;;;;4992501;28;20482;-77
2021/12/07 08:25:51;;;;;;;7.75;1.48;;;;;;;;;;4977860;28;20050;-80
2021/12/07 08:28:19;;;;;;;5.22;1.67;;;;;;;;;;4996501;28;20043;-76
2021/12/07 08:30:48;;;;;;;4.28;1.70;;;;;;;;;;4996458;28;20490;-78
2021/12/07 08:33:16;;;;;;;3.13;1.25;;;;;;;;;;4996909;28;20078;-78
2021/12/07 08:35:45;;;;;;;2.13;1.15;;;;;;;;;;4978942;28;20498;-80
2021/12/07 08:38:13;;;;;;;3.40;1.50;;;;;;;;;;4996474;28;20073;-78
2021/12/07 08:40:41;;;;;;;4.90;1.20;;;;;;;;;;4979402;28;20474;-80
2021/12/07 08:43:13;;;;;;;8.48;1.52;;;;;;;;;;4996232;28;20045;-80
2021/12/07 08:45:42;;;;;;;4.05;1.17;;;;;;;;;;4996171;28;20046;-78
2021/12/07 08:48:10;;;;;;;2.08;0.98;;;;;;;;;;4962234;28;20044;-81
2021/12/07 08:50:37;;;;;;;1.83;0.93;;;;;;;;;;4995750;28;20046;-79
2021/12/07 08:53:11;;;;;;;4.45;1.30;;;;;;;;;;4995073;28;20054;-77
2021/12/07 09:01:13;;;;;;;3.78;1.20;;;;;;;;;;4996029;28;20129;-80
2021/12/07 09:03:41;;;;;;;5.95;1.30;;;;;;;;;;4995425;28;20066;-81
2021/12/07 09:06:12;;;;;;;4.15;1.45;;;;;;;;;;4995620;28;20125;-80
2021/12/07 09:08:40;;;;;;;7.32;1.50;;;;;;;;;;4991328;28;20053;-80
2021/12/07 09:11:09;;;;;;;3.25;1.55;;;;;;;;;;4989743;28;20413;-80
2021/12/07 09:13:39;;;;;;;4.68;1.52;;;;;;;;;;4977880;28;20070;-77
2021/12/07 09:16:10;;;;;;;1.88;1.30;;;;;;;;;;4995271;28;20042;-77
2021/12/07 09:18:37;;;;;;;2.35;1.27;;;;;;;;;;4978666;28;20038;-78
2021/12/07 09:21:05;;;;;;;5.53;1.42;;;;;;;;;;4995433;28;20121;-79
2021/12/07 09:23:33;;;;;;;4.95;1.80;;;;;;;;;;4978567;28;20113;-79
2021/12/07 09:26:05;;;;;;;4.53;1.60;;;;;;;;;;4978384;28;20105;-79
2021/12/07 09:28:35;;;;;;;9.57;1.60;;;;;;;;;;4995625;28;20054;-80
2021/12/07 09:31:06;;;;;;;3.55;1.73;;;;;;;;;;4978502;28;20042;-79
2021/12/07 09:33:36;;;;;;;5.15;1.60;;;;;;;;;;4995963;28;20569;-80
2021/12/07 09:36:05;;;;;;;4.32;1.00;;;;;;;;;;4980669;28;20037;-81
2021/12/07 09:38:33;;;;;;;2.28;1.17;;;;;;;;;;5014596;28;20042;-79
2021/12/07 09:41:04;;;;;;;3.85;1.70;;;;;;;;;;4977363;28;20049;-80
2021/12/07 09:43:32;;;;;;;3.22;1.15;;;;;;;;;;4961921;28;20042;-79
2021/12/07 09:46:00;;;;;;;5.30;1.27;;;;;;;;;;4995192;28;20453;-77
2021/12/07 09:48:31;;;;;;;4.65;1.75;;;;;;;;;;4977280;28;20062;-77
2021/12/07 09:51:00;;;;;;;1.55;0.98;;;;;;;;;;4994631;28;20046;-78
2021/12/07 09:53:29;;;;;;;4.28;1.33;;;;;;;;;;4977470;28;20054;-78
2021/12/07 09:55:58;;;;;;;8.57;1.58;;;;;;;;;;4994636;28;20081;-78
2021/12/07 09:58:26;;;;;;;2.58;1.50;;;;;;;;;;4977285;28;20511;-78
2021/12/07 10:00:54;;;;;;;5.75;1.58;;;;;;;;;;4977383;28;20044;-78
2021/12/07 10:03:23;;;;;;;8.30;1.45;;;;;;;;;;4994121;28;20038;-78
2021/12/07 10:05:52;;;;;;;5.20;1.50;;;;;;;;;;4994623;28;20516;-79
2021/12/07 10:08:20;;;;;;;5.47;1.50;;;;;;;;;;4994588;28;20049;-78
2021/12/07 10:10:53;;;;;;;6.00;1.27;;;;;;;;;;4994631;28;20043;-79
2021/12/07 10:13:21;;;;;;;7.57;1.60;;;;;;;;;;4994655;28;20046;-80
2021/12/07 10:15:56;;;;;;;6.53;1.70;;;;;;;;;;4993985;28;20489;-79
2021/12/07 10:18:26;;;;;;;8.60;1.60;;;;;;;;;;4977148;28;20053;-79
2021/12/07 10:21:14;;;;;;;4.43;1.35;;;;;;;;;;4994371;28;20133;-79
2021/12/07 10:23:41;;;;;;;1.92;0.90;;;;;;;;;;4994219;28;20042;-79
2021/12/07 10:26:16;;;;;;;14.77;1.70;;;;;;;;;;4993762;28;20125;-77
2021/12/07 10:29:04;;;;;;;13.32;1.58;;;;;;;;;;4994102;28;20125;-77
2021/12/07 10:31:34;;;;;;;4.32;1.30;;;;;;;;;;4991127;28;20048;-79
2021/12/07 10:34:06;;;;;;;9.88;1.13;;;;;;;;;;4973427;28;20050;-77
2021/12/07 10:36:44;;;;;;;9.25;1.58;;;;;;;;;;4975920;28;20414;-75
2021/12/07 10:39:12;;;;;;;8.63;1.75;;;;;;;;;;4992143;28;20042;-75
2021/12/07 10:41:42;;;;;;;5.25;1.13;;;;;;;;;;4976491;28;20039;-79
2021/12/07 10:44:14;;;;;;;6.97;1.25;;;;;;;;;;4993497;28;20038;-79
2021/12/07 10:46:45;;;;;;;5.20;1.48;;;;;;;;;;4993202;28;20042;-76
2021/12/07 10:49:21;;;;;;;5.20;1.45;;;;;;;;;;4993141;28;20049;-77
2021/12/07 10:51:56;;;;;;;6.40;1.30;;;;;;;;;;5067902;23;20145;-79
2021/12/07 10:54:30;;;;;;;4.75;1.30;;;;;;;;;;5033722;28;20120;-77
2021/12/07 10:57:02;;;;;;;9.60;1.73;;;;;;;;;;5031054;28;20120;-79
2021/12/07 10:59:32;;;;;;;3.90;1.65;;;;;;;;;;5032478;28;20120;-79
2021/12/07 11:02:10;;;;;;;4.75;1.33;;;;;;;;;;5015333;28;20116;-77
2021/12/07 11:04:44;;;;;;;3.17;1.40;;;;;;;;;;5032618;28;20107;-78
2021/12/07 11:07:24;;;;;;;3.50;1.25;;;;;;;;;;5032091;28;20053;-78
2021/12/07 11:10:08;;;;;;;7.00;1.58;;;;;;;;;;5033089;28;20042;-78
2021/12/07 11:12:49;;;;;;;6.03;1.30;;;;;;;;;;5015546;28;20220;-78
2021/12/07 11:15:31;;;;;;;7.25;1.60;;;;;;;;;;5030530;28;20107;-78
2021/12/07 11:18:10;;;;;;;4.10;1.58;;;;;;;;;;5032978;28;20038;-78
2021/12/07 11:20:39;;;;;;;4.63;1.48;;;;;;;;;;5032856;28;20037;-78
2021/12/07 11:23:23;;;;;;;5.80;1.57;;;;;;;;;;5032747;28;20037;-79
2021/12/07 11:31:35;;;;;;;7.35;2.03;;;;;;;;;;5015077;28;20045;-80
2021/12/07 11:34:23;;;;;;;17.65;7.53;;;;;;;;;;5033114;28;20049;-78
2021/12/07 11:36:53;;;;;;;7.47;2.03;;;;;;;;;;5032820;28;20153;-78
2021/12/07 11:39:25;;;;;;;4.72;1.42;;;;;;;;;;5032278;28;20076;-78
2021/12/07 11:42:13;;;;;;;6.72;1.40;;;;;;;;;;5032880;28;20042;-78
2021/12/07 11:44:46;;;;;;;2.83;1.15;;;;;;;;;;5032632;28;20445;-78
2021/12/07 11:47:14;;;;;;;4.63;1.25;;;;;;;;;;5032652;28;20120;-78
2021/12/07 11:49:43;;;;;;;6.85;1.08;;;;;;;;;;5032671;28;20052;-78
2021/12/07 11:52:11;;;;;;;6.40;1.27;;;;;;;;;;5014928;28;20112;-78
2021/12/07 11:54:42;;;;;;;4.70;0.98;;;;;;;;;;5032685;28;20038;-77
2021/12/07 11:57:17;;;;;;;1.13;0.80;;;;;;;;;;5033189;28;20069;-78
2021/12/07 11:59:45;;;;;;;6.80;1.23;;;;;;;;;;5035496;28;20048;-77
2021/12/07 12:02:18;;;;;;;2.63;0.93;;;;;;;;;;5037197;28;20428;-78
2021/12/07 12:04:50;;;;;;;4.13;1.27;;;;;;;;;;5035914;28;20608;-77
2021/12/07 12:07:21;;;;;;;5.50;1.15;;;;;;;;;;5035520;28;20504;-77
2021/12/07 12:09:51;;;;;;;4.55;0.93;;;;;;;;;;5035891;28;20489;-76
2021/12/07 12:12:28;;;;;;;3.53;0.98;;;;;;;;;;5036165;28;20496;-76
2021/12/07 12:15:16;;;;;;;4.28;0.80;;;;;;;;;;5018342;28;20179;-78
2021/12/07 12:17:57;;;;;;;6.53;2.10;;;;;;;;;;5035761;28;20136;-80
2021/12/07 12:20:56;;;;;;;4.05;1.60;;;;;;;;;;5035951;28;20049;-76
2021/12/07 12:23:44;;;;;;;4.22;1.10;;;;;;;;;;5035778;28;20047;-76
2021/12/07 12:26:19;;;;;;;5.55;1.15;;;;;;;;;;5034528;28;20107;-76
2021/12/07 12:28:49;;;;;;;4.47;1.42;;;;;;;;;;5035784;28;20128;-76
2021/12/07 12:31:19;;;;;;;2.97;0.98;;;;;;;;;;5035717;28;20041;-78
2021/12/07 12:33:51;;;;;;;2.35;0.98;;;;;;;;;;5036077;28;20536;-76
2021/12/07 12:36:19;;;;;;;;;;;;;;;;;;5018613;28;20444;-74
2021/12/07 12:38:57;;;;;;;2.60;0.90;;;;;;;;;;5034955;28;20403;-75
2021/12/07 12:44:25;;;;;;;3.78;1.10;;;;;;;;;;5008917;28;20050;-77
2021/12/07 12:46:58;;;;;;;5.20;1.17;;;;;;;;;;5010933;28;20455;-75
2021/12/07 12:49:43;;;;;;;4.97;1.27;;;;;;;;;;5028163;28;20084;-76
2021/12/07 12:52:14;;;;;;;4.03;1.00;;;;;;;;;;5020355;28;20061;-75
2021/12/07 12:54:46;;;;;;;3.92;1.40;;;;;;;;;;5026014;28;20038;-76
2021/12/07 12:57:48;;;;;;;2.80;1.10;;;;;;;;;;5017937;28;20030;-74
2021/12/07 13:00:16;;;;;;;5.35;1.35;;;;;;;;;;5026705;28;20042;-76
2021/12/07 13:03:08;;;;;;;2.63;1.08;;;;;;;;;;5012728;28;20069;-75
2021/12/07 13:05:43;;;;;;;2.47;0.93;;;;;;;;;;5010947;28;20426;-77
2021/12/07 13:08:10;;;;;;;;;;;;;;;;;;5022643;28;20037;-74
2021/12/07 13:10:57;;;;;;;3.15;1.20;;;;;;;;;;5030957;28;19921;-77
2021/12/07 13:13:29;;;;;;;1.58;0.77;;;;;;;;;;5024015;28;20073;-75
2021/12/07 13:15:59;;;;;;;4.93;3.65;;;;;;;;;;5031287;28;20073;-76
2021/12/07 13:18:31;;;;;;;0.82;0.65;;;;;;;;;;5022667;28;20053;-77
2021/12/07 13:21:16;;;;;;;0.85;0.57;;;;;;;;;;5025530;28;20470;-74
2021/12/07 13:23:57;;;;;;;1.67;0.90;;;;;;;;;;5016272;28;20065;-74
2021/12/07 13:26:26;;;;;;;2.08;1.33;;;;;;;;;;5034013;28;20620;-73
2021/12/07 13:29:25;;;;;;;2.15;1.38;;;;;;;;;;5034253;28;20505;-75
2021/12/07 13:31:57;;;;;;;4.63;0.98;;;;;;;;;;4994834;28;20133;-75
2021/12/07 13:34:37;;;;;;;3.38;0.63;;;;;;;;;;5034599;28;20096;-75
2021/12/07 13:37:10;;;;;;;1.08;0.98;;;;;;;;;;5034264;28;20076;-73
2021/12/07 13:39:47;;;;;;;2.93;0.73;;;;;;;;;;5034065;28;20041;-77
2021/12/07 13:42:23;;;;;;;3.08;1.27;;;;;;;;;;5033413;28;20124;-75
2021/12/07 13:45:05;;;;;;;3.17;0.60;;;;;;;;;;5034317;28;20064;-75
2021/12/07 13:47:41;;;;;;;2.58;0.85;;;;;;;;;;5016675;28;20045;-75
2021/12/07 13:50:13;;;;;;;3.53;0.88;;;;;;;;;;5034215;28;20041;-75
2021/12/07 13:52:42;;;;;;;2.22;1.38;;;;;;;;;;5033419;28;20064;-74
2021/12/07 13:55:15;;;;;;;2.10;0.68;;;;;;;;;;5033919;28;20042;-74
2021/12/07 13:57:48;;;;;;;4.03;1.00;;;;;;;;;;5016919;28;20033;-74
2021/12/07 14:00:29;;;;;;;2.33;0.90;;;;;;;;;;5033893;28;20386;-75
2021/12/07 14:03:02;;;;;;;1.23;0.60;;;;;;;;;;5033602;28;20045;-77
2021/12/07 14:05:34;;;;;;;3.42;0.68;;;;;;;;;;5034029;28;20444;-75
2021/12/07 14:08:05;;;;;;;1.38;0.57;;;;;;;;;;4999862;28;20394;-77
2021/12/07 14:10:43;;;;;;;1.25;0.70;;;;;;;;;;5016535;28;20120;-76
2021/12/07 14:13:11;;;;;;;1.35;0.75;;;;;;;;;;5033676;28;20073;-77
2021/12/07 14:15:59;;;;;;;2.33;0.55;;;;;;;;;;5033319;28;20045;-76
2021/12/07 14:18:35;;;;;;;6.22;0.88;;;;;;;;;;5033682;28;20056;-76
2021/12/07 14:21:04;;;;;;;1.20;0.73;;;;;;;;;;5033294;28;20046;-77
2021/12/07 14:23:37;;;;;;;2.30;1.10;;;;;;;;;;5024366;28;20444;-78
2021/12/07 14:26:14;;;;;;;1.00;0.73;;;;;;;;;;5033459;28;20108;-76
2021/12/07 14:28:45;;;;;;;0.85;0.55;;;;;;;;;;5032916;28;20128;-75
2021/12/07 14:31:18;;;;;;;2.65;0.85;;;;;;;;;;5002711;28;20046;-75
2021/12/07 14:33:48;;;;;;;1.60;0.90;;;;;;;;;;5032146;28;20060;-75
2021/12/07 14:36:27;;;;;;;4.40;0.90;;;;;;;;;;5040946;28;20072;-76
2021/12/07 14:38:55;;;;;;;1.83;0.70;;;;;;;;;;5032778;28;20272;-76
2021/12/07 14:41:24;;;;;;;1.98;1.48;;;;;;;;;;5050173;28;20419;-76
2021/12/07 14:43:52;;;;;;;3.05;0.65;;;;;;;;;;5053043;28;20048;-75
2021/12/07 14:46:22;;;;;;;0.52;0.52;;;;;;;;;;5035363;28;20041;-76
2021/12/07 14:48:52;;;;;;;2.90;0.93;;;;;;;;;;5052816;28;20037;-74
2021/12/07 14:51:22;;;;;;;2.05;0.80;;;;;;;;;;5050352;28;20041;-75
2021/12/07 14:53:56;;;;;;;1.25;0.80;;;;;;;;;;5032859;28;20063;-75
2021/12/07 14:56:24;;;;;;;2.00;0.82;;;;;;;;;;5032982;28;20073;-73
2021/12/07 14:58:54;;;;;;;5.00;1.00;;;;;;;;;;5032961;28;20123;-74
2021/12/07 15:01:23;;;;;;;1.00;0.60;;;;;;;;;;5015128;28;20427;-75
2021/12/07 15:03:58;;;;;;;2.55;1.15;;;;;;;;;;5015805;28;20041;-75
2021/12/07 15:06:27;;;;;;;1.95;1.20;;;;;;;;;;5014705;28;20046;-75
2021/12/07 15:08:57;;;;;;;1.10;0.60;;;;;;;;;;5032796;28;20049;-75
2021/12/07 15:11:39;;;;;;;0.70;0.70;;;;;;;;;;5017107;28;20116;-75
2021/12/07 15:14:08;;;;;;;2.35;0.98;;;;;;;;;;5031976;28;20045;-76
2021/12/07 15:16:37;;;;;;;3.03;0.90;;;;;;;;;;5032371;28;20042;-75
2021/12/07 15:19:05;;;;;;;1.38;0.65;;;;;;;;;;5032622;28;20041;-75
2021/12/07 15:21:38;;;;;;;3.30;2.60;;;;;;;;;;5032783;28;20040;-77
2021/12/07 15:24:08;;;;;;;2.95;0.70;;;;;;;;;;5032546;28;20120;-74
2021/12/07 15:26:43;;;;;;;1.10;0.70;;;;;;;;;;5032290;28;20349;-74
2021/12/07 15:29:13;;;;;;;1.83;0.90;;;;;;;;;;5032483;28;20073;-76
2021/12/07 15:32:02;;;;;;;1.75;1.00;;;;;;;;;;5015231;28;20120;-77
2021/12/07 15:34:36;;;;;;;1.40;0.80;;;;;;;;;;5035012;28;20412;-76
2021/12/07 15:37:06;;;;;;;1.88;1.02;;;;;;;;;;5036529;28;20042;-76
2021/12/07 15:39:42;;;;;;;1.88;1.10;;;;;;;;;;5018762;28;20085;-78
2021/12/07 15:42:11;;;;;;;3.25;1.30;;;;;;;;;;5036116;28;20120;-76
2021/12/07 15:44:41;;;;;;;3.47;1.10;;;;;;;;;;5036932;28;20112;-77
2021/12/07 15:47:11;;;;;;;2.08;1.00;;;;;;;;;;5036580;28;20056;-77
2021/12/07 15:49:40;;;;;;;3.90;3.10;;;;;;;;;;5002723;28;20419;-76
2021/12/07 15:52:16;;;;;;;1.70;1.30;;;;;;;;;;5018291;28;20457;-78
2021/12/07 15:55:06;;;;;;;3.03;0.80;;;;;;;;;;5037970;28;20056;-78
2021/12/07 15:57:44;;;;;;;2.70;0.90;;;;;;;;;;5038617;28;20117;-77
2021/12/07 16:00:17;;;;;;;3.33;1.02;;;;;;;;;;5055703;28;20060;-77
2021/12/07 16:02:52;;;;;;;3.10;1.05;;;;;;;;;;5055749;28;20399;-76
2021/12/07 16:05:40;;;;;;;2.15;1.20;;;;;;;;;;5041189;28;20518;-76
2021/12/07 16:08:11;;;;;;;5.45;2.80;;;;;;;;;;5056050;28;20056;-76
2021/12/07 16:10:41;;;;;;;3.15;1.92;;;;;;;;;;5055659;28;20044;-77
2021/12/07 16:13:14;;;;;;;3.08;1.30;;;;;;;;;;5055723;28;20408;-77
2021/12/07 16:15:46;;;;;;;2.83;1.15;;;;;;;;;;5055151;28;20097;-77
2021/12/07 16:18:13;;;;;;;3.85;1.00;;;;;;;;;;5055935;28;20037;-77
2021/12/07 16:20:42;;;;;;;3.28;1.30;;;;;;;;;;5055659;28;20037;-76
2021/12/07 16:23:13;;;;;;;3.55;1.20;;;;;;;;;;5055850;28;20555;-76
2021/12/07 16:25:42;;;;;;;2.47;0.98;;;;;;;;;;5055070;28;20039;-77
2021/12/07 16:28:31;;;;;;;1.42;0.80;;;;;;;;;;5040705;28;20041;-76
2021/12/07 16:30:59;;;;;;;5.15;1.20;;;;;;;;;;5055738;28;20048;-76
2021/12/07 16:33:27;;;;;;;2.33;1.40;;;;;;;;;;5055310;28;20052;-77
2021/12/07 16:35:54;;;;;;;6.90;1.23;;;;;;;;;;5055406;28;20048;-77
2021/12/07 16:38:23;;;;;;;2.30;1.05;;;;;;;;;;5037733;28;20051;-77
2021/12/07 16:40:51;;;;;;;3.30;0.98;;;;;;;;;;5054935;28;20037;-76
2021/12/07 16:43:19;;;;;;;3.40;1.23;;;;;;;;;;5055696;28;20069;-76
2021/12/07 16:45:47;;;;;;;4.18;1.05;;;;;;;;;;5054415;28;20044;-77
2021/12/07 16:48:15;;;;;;;1.77;1.00;;;;;;;;;;5055784;28;20072;-76
2021/12/07 16:50:43;;;;;;;4.13;0.80;;;;;;;;;;5037264;28;20051;-76
2021/12/07 16:53:11;;;;;;;1.98;0.93;;;;;;;;;;5055110;28;20075;-76
2021/12/07 16:55:38;;;;;;;3.33;0.70;;;;;;;;;;5037261;28;20051;-77
2021/12/07 16:58:07;;;;;;;2.38;0.90;;;;;;;;;;5054924;28;20419;-77
2021/12/07 17:00:42;;;;;;;4.72;1.00;;;;;;;;;;5054792;28;20033;-75
2021/12/07 17:03:13;;;;;;;5.00;1.00;;;;;;;;;;5054756;28;20115;-75
2021/12/07 17:05:48;;;;;;;3.05;0.98;;;;;;;;;;5035417;28;20033;-76